This is the latest recevied weather packets stored in our database for station/object EW2310. If no packets are shown the sender has not sent any weather packets the latest 10 day(s).
| Time | Temp. | Humidity | Pressure | Rain* | Wind** | Luminosity | Snow |
|---|---|---|---|---|---|---|---|
| 1777824043 | 20° C | 62% | 1016.5 hPa | 0 mm | - | 323 W/m² | - |
| 1777821046 | 20° C | 60% | 1017 hPa | 0 mm | - | 357 W/m² | - |
| 1777819543 | 20° C | 61% | 1017.6 hPa | 0 mm | - | 512 W/m² | - |
| 1777819243 | 20° C | 61% | 1017.6 hPa | 0 mm | - | 519 W/m² | - |
| 1777818943 | 20° C | 60% | 1017.7 hPa | 0 mm | - | 376 W/m² | - |
| 1777817443 | 20° C | 58% | 1018 hPa | 0 mm | - | 677 W/m² | - |
| 1777813543 | 20° C | 61% | 1018.5 hPa | 0 mm | - | 803 W/m² | - |
| 1777813243 | 20° C | 61% | 1018.4 hPa | 0 mm | - | 824 W/m² | - |
| 1777812943 | 20.56° C | 59% | 1018.5 hPa | 0 mm | - | 816 W/m² | - |
| 1777812043 | 20.56° C | 59% | 1018.5 hPa | 0 mm | - | 826 W/m² | - |
| 1777810543 | 20° C | 59% | 1018.9 hPa | 0 mm | - | 763 W/m² | - |
| 1777810243 | 20° C | 60% | 1018.8 hPa | 0 mm | - | 798 W/m² | - |
| 1777809646 | 20° C | 58% | 1018.7 hPa | 0 mm | - | 916 W/m² | - |
| 1777809043 | 20° C | 59% | 1018.6 hPa | 0 mm | - | 947 W/m² | - |
| 1777808143 | 20° C | 56% | 1018.6 hPa | 0 mm | - | 877 W/m² | - |
| 1777806643 | 20.56° C | 53% | 1018.6 hPa | 0 mm | - | 962 W/m² | - |
| 1777805743 | 20.56° C | 51% | 1018.5 hPa | 0 mm | - | 944 W/m² | - |
| 1777804543 | 21.11° C | 45% | 1018.5 hPa | 0 mm | - | 919 W/m² | - |
| 1777804243 | 21.11° C | 45% | 1018.6 hPa | 0 mm | - | 914 W/m² | - |
| 1777803343 | 21.11° C | 50% | 1018.6 hPa | 0 mm | - | 853 W/m² | - |
| 1777803043 | 21.11° C | 53% | 1018.7 hPa | 0 mm | - | 896 W/m² | - |
| 1777800343 | 21.11° C | 53% | 1019.1 hPa | 0 mm | - | 877 W/m² | - |
| 1777797946 | 19.44° C | 58% | 1019.2 hPa | 0 mm | - | 638 W/m² | - |
| 1777797343 | 18.89° C | 61% | 1019.3 hPa | 0 mm | - | 599 W/m² | - |
| 1777797043 | 18.33° C | 61% | 1019.3 hPa | 0 mm | - | 594 W/m² | - |
* Rain latest hour (hover to see other rain measurements)
** Current wind speed in m/s (hover to see current wind gust speed)